Terminal Aerodrome Forecast
Issued by NWS

Home | Current Version | Previous Version | Text Only | Print | Product List | Glossary On
Versions: 1 2 3 4 5 6 7 8 9 10 11 12 13 14 15 16 17 18 19 20 21 22 23 24 25 26 27 28 29 30 31 32 33 34 35 36 37 38 39 40 41 42 43 44 45 46 47 48 49 50
000
FTUS43 KMKX 291142 AAA
TAFENW
TAF AMD
KENW 291142Z 2912/3012 17005KT 6SM BR VCTS FEW006 SCT025CB BKN090
      TEMPO 2913/2915 4SM -TSRA BKN003 OVC025CB
     FM291600 18009KT P6SM SCT025 BKN130
     FM292300 19010G17KT P6SM VCTS SCT040CB BKN100
     FM300200 18008KT 4SM -TSRA BR BKN035CB OVC060
     FM300800 20005KT 6SM -SHRA BR OVC035
     FM301100 VRB03KT 4SM BR OVC025=

USA.gov is the U.S. government's official web portal to all federal, state and local government web resources and services.